Time;durP1;ratioP1;P1;durP2;ratioP2;P2;SDS_P1;SDS_P2;PMS_P1;PMS_P2;Temp;Humidity;BMP_temperature;BMP_pressure;BME280_temperature;BME280_humidity;BME280_pressure;Samples;Min_cycle;Max_cycle;Signal;HPM_P1;HPM_P2
2021/05/06 00:07:56;;;;;;;4.78;2.20;;;18.10;55.70;;;;;;4974291;28;20187;-80
2021/05/06 00:32:51;;;;;;;4.45;2.17;;;18.00;56.00;;;;;;4973578;28;20299;-80
2021/05/06 00:35:27;;;;;;;7.38;3.03;;;18.00;56.10;;;;;;4972599;28;20153;-80
2021/05/06 00:38:12;;;;;;;8.52;2.38;;;18.00;56.10;;;;;;4954955;28;20219;-80
2021/05/06 01:05:40;;;;;;;3.83;2.00;;;18.00;56.30;;;;;;4894701;29;20191;-79
2021/05/06 01:08:21;;;;;;;3.53;2.30;;;18.00;56.10;;;;;;4879171;29;20278;-80
2021/05/06 01:13:28;;;;;;;6.28;2.55;;;18.00;56.00;;;;;;4894735;29;20163;-80
2021/05/06 01:15:56;;;;;;;6.45;2.55;;;18.00;56.00;;;;;;4878314;29;20686;-80
2021/05/06 01:18:26;;;;;;;7.38;2.65;;;18.00;56.00;;;;;;4893649;29;20192;-80
2021/05/06 01:21:00;;;;;;;7.05;2.60;;;18.00;55.80;;;;;;4894256;29;20188;-80
2021/05/06 01:23:30;;;;;;;5.32;2.50;;;18.00;55.90;;;;;;4893989;29;20187;-80
2021/05/06 01:26:05;;;;;;;4.57;2.35;;;18.00;56.10;;;;;;4909499;29;20179;-80
2021/05/06 01:28:39;;;;;;;4.45;2.40;;;17.90;56.10;;;;;;4936046;29;20565;-82
2021/05/06 01:31:16;;;;;;;5.15;2.20;;;18.00;56.10;;;;;;4920762;29;20165;-80
2021/05/06 01:34:06;;;;;;;5.47;2.25;;;18.00;56.20;;;;;;4906890;29;20188;-80
2021/05/06 01:36:46;;;;;;;3.22;2.28;;;17.90;56.00;;;;;;4937222;29;20217;-80
2021/05/06 01:59:46;;;;;;;6.65;2.40;;;18.00;56.00;;;;;;4843896;29;20253;-81
2021/05/06 02:02:18;;;;;;;6.20;2.22;;;17.90;56.10;;;;;;4828943;29;20196;-80
2021/05/06 02:04:59;;;;;;;6.38;2.35;;;17.90;56.00;;;;;;4840880;29;20169;-80
2021/05/06 02:07:51;;;;;;;5.88;2.40;;;17.90;56.00;;;;;;4844220;29;20158;-80
2021/05/06 02:10:30;;;;;;;3.88;2.22;;;18.00;55.80;;;;;;4841054;29;20177;-80
2021/05/06 02:12:57;;;;;;;4.10;2.20;;;18.00;55.80;;;;;;4840813;29;20188;-80
2021/05/06 02:15:34;;;;;;;4.72;2.28;;;18.00;56.10;;;;;;4842145;29;20185;-80
2021/05/06 02:18:16;;;;;;;6.63;2.17;;;17.90;56.10;;;;;;4844049;29;20213;-80
2021/05/06 02:20:52;;;;;;;3.15;2.03;;;17.90;56.00;;;;;;4826047;29;20213;-80
2021/05/06 02:23:23;;;;;;;5.43;2.30;;;17.90;56.00;;;;;;4856856;29;20219;-80
2021/05/06 02:25:51;;;;;;;6.05;2.45;;;17.90;55.90;;;;;;4904072;29;20193;-80
2021/05/06 02:28:20;;;;;;;4.93;2.20;;;17.90;55.80;;;;;;4941114;28;20231;-80
2021/05/06 02:31:07;;;;;;;4.63;2.13;;;17.90;55.70;;;;;;4961002;28;20172;-81
2021/05/06 02:33:38;;;;;;;3.92;1.98;;;17.90;56.00;;;;;;4972958;28;20194;-81
2021/05/06 02:36:14;;;;;;;3.70;2.13;;;17.90;55.90;;;;;;4956641;28;20180;-81
2021/05/06 02:38:42;;;;;;;4.03;2.10;;;17.90;55.90;;;;;;4941264;28;20231;-80
2021/05/06 02:41:13;;;;;;;5.80;2.25;;;17.80;55.90;;;;;;4958086;28;20188;-81
2021/05/06 02:43:49;;;;;;;5.45;2.53;;;17.90;56.10;;;;;;4957786;28;20216;-81
2021/05/06 02:46:19;;;;;;;4.25;2.30;;;17.90;55.90;;;;;;4989735;28;20177;-80
2021/05/06 02:48:49;;;;;;;4.38;1.83;;;17.90;55.80;;;;;;4956795;28;20244;-80
2021/05/06 02:51:16;;;;;;;3.90;2.13;;;17.90;55.90;;;;;;4957509;28;20211;-80
2021/05/06 02:53:51;;;;;;;4.72;2.50;;;17.90;55.80;;;;;;4989673;28;20185;-80
2021/05/06 03:04:16;;;;;;;4.72;2.20;;;17.90;56.10;;;;;;4961360;28;20203;-80
2021/05/06 03:06:53;;;;;;;4.13;2.28;;;17.90;56.20;;;;;;4956501;28;20261;-80
2021/05/06 03:09:36;;;;;;;5.95;2.20;;;17.90;55.90;;;;;;4973796;28;20180;-80
2021/05/06 03:23:06;;;;;;;3.97;2.22;;;17.90;55.90;;;;;;4975179;28;20180;-80
2021/05/06 03:25:41;;;;;;;5.60;2.38;;;17.90;56.00;;;;;;4972776;28;20168;-80
2021/05/06 03:28:12;;;;;;;4.07;2.55;;;17.90;56.00;;;;;;4941309;28;20172;-80
2021/05/06 05:04:47;;;;;;;5.55;2.33;;;18.10;54.20;;;;;;6208316;23;20600;-81
2021/05/06 05:07:19;;;;;;;2.83;2.08;;;18.10;54.20;;;;;;6233392;23;20198;-80
2021/05/06 05:20:37;;;;;;;3.83;2.10;;;18.00;54.50;;;;;;6225662;23;20130;-81
2021/05/06 05:23:27;;;;;;;3.50;1.80;;;18.00;55.40;;;;;;6228214;23;20126;-80
2021/05/06 05:26:20;;;;;;;3.70;2.13;;;18.00;54.80;;;;;;6234214;23;20115;-80
2021/05/06 05:29:42;;;;;;;2.65;2.00;;;18.00;54.90;;;;;;6065307;23;20189;-80
2021/05/06 05:32:12;;;;;;;3.72;1.88;;;18.00;54.60;;;;;;6110505;23;20152;-80
2021/05/06 05:34:42;;;;;;;4.05;2.10;;;18.10;54.60;;;;;;6086644;23;20149;-81
2021/05/06 05:37:16;;;;;;;5.13;1.95;;;18.00;54.30;;;;;;6110886;23;20193;-80
2021/05/06 06:23:51;;;;;;;3.70;1.90;;;18.10;54.10;;;;;;5939964;24;20174;-80
2021/05/06 06:26:27;;;;;;;4.00;1.77;;;18.10;54.40;;;;;;5961103;24;20165;-80
2021/05/06 06:36:52;;;;;;;4.28;1.98;;;18.10;54.20;;;;;;5807115;24;20164;-80
2021/05/06 06:56:47;;;;;;;2.88;1.70;;;18.10;53.80;;;;;;5794591;24;20236;-80
2021/05/06 07:06:15;;;;;;;3.92;1.60;;;18.20;53.70;;;;;;5773396;24;20200;-80
2021/05/06 07:26:56;;;;;;;3.92;1.85;;;18.10;53.50;;;;;;5815573;24;20690;-81
2021/05/06 07:30:30;;;;;;;3.30;1.67;;;18.20;53.20;;;;;;5817742;24;20164;-80
2021/05/06 07:40:02;;;;;;;3.38;2.55;;;18.20;53.90;;;;;;6052911;23;20157;-81
2021/05/06 07:42:57;;;;;;;3.03;2.03;;;18.10;53.80;;;;;;6028002;23;20224;-82
2021/05/06 07:57:28;;;;;;;;;;;;;;;;;;;;;
2021/05/06 08:00:19;;;;;;;3.65;1.83;;;18.10;53.70;;;;;;5817588;24;20171;-80
2021/05/06 08:27:45;;;;;;;2.83;1.55;;;18.20;53.70;;;;;;6131183;23;20536;-80
2021/05/06 08:30:58;;;;;;;3.13;1.50;;;18.20;53.50;;;;;;6234234;23;20173;-81
2021/05/06 08:37:09;;;;;;;4.05;1.70;;;18.20;53.40;;;;;;6231672;23;20185;-83
2021/05/06 08:39:47;;;;;;;3.10;1.80;;;18.20;53.50;;;;;;6204920;23;20550;-82
2021/05/06 08:42:20;;;;;;;3.50;1.77;;;18.20;53.30;;;;;;6201481;23;20141;-82
2021/05/06 08:44:54;;;;;;;1.65;1.52;;;18.20;53.50;;;;;;6175350;23;20142;-82
2021/05/06 08:47:22;;;;;;;2.58;1.88;;;18.20;53.50;;;;;;6199239;23;20165;-82
2021/05/06 08:50:18;;;;;;;2.42;1.63;;;18.20;53.70;;;;;;6172736;23;20624;-82
2021/05/06 08:52:51;;;;;;;3.20;1.65;;;18.20;53.90;;;;;;6201833;23;20153;-82
2021/05/06 08:59:16;;;;;;;1.75;1.45;;;18.20;53.70;;;;;;6082331;23;20187;-83
2021/05/06 09:01:52;;;;;;;1.88;1.40;;;18.20;53.40;;;;;;6030066;23;20211;-81
2021/05/06 09:04:18;;;;;;;4.10;1.80;;;18.20;53.40;;;;;;6030445;23;20186;-82
2021/05/06 09:07:02;;;;;;;2.13;1.70;;;18.30;53.50;;;;;;6055714;23;20149;-81
2021/05/06 10:32:50;;;;;;;3.38;1.58;;;18.30;53.50;;;;;;6238957;23;20166;-82
2021/05/06 10:35:24;;;;;;;3.38;1.55;;;18.30;53.80;;;;;;6183943;23;20657;-79
2021/05/06 10:37:59;;;;;;;3.65;2.20;;;18.20;53.80;;;;;;6210461;23;20253;-79
2021/05/06 10:40:29;;;;;;;1.98;1.50;;;18.30;53.70;;;;;;6238697;23;20172;-79
2021/05/06 10:42:55;;;;;;;2.05;1.42;;;18.30;53.60;;;;;;6186468;23;20202;-79
2021/05/06 10:46:10;;;;;;;2.63;1.80;;;18.30;53.60;;;;;;6186153;23;20130;-80
2021/05/06 10:56:28;;;;;;;2.42;1.50;;;18.40;53.40;;;;;;6231731;22;20204;-81
2021/05/06 10:59:01;;;;;;;3.05;1.55;;;18.40;53.20;;;;;;6180962;23;20215;-82
2021/05/06 11:01:41;;;;;;;2.60;1.60;;;18.40;53.20;;;;;;6206369;23;20268;-81
2021/05/06 11:04:38;;;;;;;2.17;1.42;;;18.40;53.40;;;;;;6207061;23;20155;-83
2021/05/06 12:26:50;;;;;;;2.60;1.40;;;18.50;52.70;;;;;;6207879;22;20284;-83
2021/05/06 12:29:37;;;;;;;1.63;1.30;;;18.50;53.00;;;;;;6190152;23;20187;-81
2021/05/06 12:32:12;;;;;;;2.00;1.58;;;18.50;52.60;;;;;;6214766;23;20149;-80
2021/05/06 12:34:54;;;;;;;2.42;1.42;;;18.50;53.10;;;;;;6241164;23;20137;-81
2021/05/06 12:37:44;;;;;;;;;;;;;;;;;;;;;
2021/05/06 12:44:53;;;;;;;1.98;1.50;;;18.50;52.50;;;;;;6171929;23;20147;-79
2021/05/06 12:47:43;;;;;;;;;;;;;;;;;;;;;
2021/05/06 12:56:58;;;;;;;1.80;1.40;;;18.50;52.60;;;;;;6056247;23;20165;-80
2021/05/06 13:00:17;;;;;;;2.20;1.60;;;18.50;52.60;;;;;;6055698;23;20142;-80
2021/05/06 13:02:42;;;;;;;1.58;1.30;;;18.50;52.70;;;;;;6025924;23;20167;-81
2021/05/06 13:05:09;;;;;;;1.88;1.45;;;18.50;52.20;;;;;;6030143;23;20162;-81
2021/05/06 13:08:19;;;;;;;2.60;1.52;;;18.50;52.30;;;;;;6055626;23;20164;-80
2021/05/06 13:11:12;;;;;;;2.08;1.63;;;18.50;52.40;;;;;;6031919;23;20162;-81
2021/05/06 13:14:06;;;;;;;2.47;1.33;;;18.50;52.60;;;;;;6031589;23;20229;-80
2021/05/06 13:31:17;;;;;;;2.70;1.23;;;18.60;52.40;;;;;;5945197;24;20296;-80
2021/05/06 13:33:48;;;;;;;2.17;1.60;;;18.60;51.70;;;;;;5921846;24;20216;-80
2021/05/06 13:36:45;;;;;;;1.90;1.40;;;18.60;52.50;;;;;;5924521;24;20239;-81
2021/05/06 13:40:08;;;;;;;2.42;1.30;;;18.60;52.60;;;;;;5925532;24;20214;-79
2021/05/06 13:43:26;;;;;;;;;;;;;;;;;;;;;
2021/05/06 13:46:13;;;;;;;1.73;1.30;;;18.50;52.60;;;;;;5917703;24;20161;-79
2021/05/06 13:49:30;;;;;;;1.77;1.38;;;18.60;52.50;;;;;;5898074;24;20141;-79
2021/05/06 13:52:07;;;;;;;2.78;1.50;;;18.50;52.70;;;;;;5916581;24;20168;-78
2021/05/06 13:54:46;;;;;;;2.28;1.55;;;18.50;53.40;;;;;;5977805;23;20186;-79
2021/05/06 13:57:12;;;;;;;1.83;1.48;;;18.50;52.70;;;;;;6059795;23;20153;-80
2021/05/06 13:59:41;;;;;;;2.00;1.60;;;18.50;52.80;;;;;;6058283;23;20184;-80
2021/05/06 14:02:31;;;;;;;2.25;1.60;;;18.50;52.90;;;;;;6062078;23;20142;-80
2021/05/06 14:05:26;;;;;;;1.83;1.35;;;18.50;53.00;;;;;;6033009;23;20142;-80
2021/05/06 14:08:22;;;;;;;3.22;1.75;;;18.50;52.80;;;;;;6005341;23;20162;-80
2021/05/06 15:20:21;;;;;;;1.52;1.42;;;18.60;52.30;;;;;;6234711;22;20213;-80
2021/05/06 15:23:20;;;;;;;2.83;1.50;;;18.60;52.10;;;;;;6170014;23;20163;-79
2021/05/06 15:26:13;;;;;;;1.60;1.50;;;18.70;52.40;;;;;;6143165;23;20569;-80
2021/05/06 15:29:15;;;;;;;2.63;1.40;;;18.70;52.40;;;;;;6144052;23;20166;-81
2021/05/06 15:32:30;;;;;;;;;;;;;;;;;;;;;
2021/05/06 15:38:42;;;;;;;1.58;1.40;;;18.80;52.60;;;;;;6060188;23;20306;-81
2021/05/06 15:55:38;;;;;;;3.10;1.63;;;18.80;51.80;;;;;;5998932;24;20200;-81
2021/05/06 16:08:46;;;;;;;5.07;1.63;;;18.80;52.30;;;;;;5998920;24;20166;-81
2021/05/06 16:21:27;;;;;;;1.77;1.42;;;18.90;51.90;;;;;;6086426;23;20230;-81
2021/05/06 16:24:13;;;;;;;3.20;1.70;;;18.90;51.90;;;;;;6093418;23;20226;-81
2021/05/06 16:26:48;;;;;;;2.45;1.67;;;18.90;52.20;;;;;;6107744;23;20203;-82
2021/05/06 16:29:51;;;;;;;3.22;1.42;;;18.90;52.10;;;;;;6088931;23;20178;-82
2021/05/06 16:32:35;;;;;;;3.42;1.55;;;18.90;53.10;;;;;;6168801;23;20189;-82
2021/05/06 16:35:05;;;;;;;1.80;1.48;;;18.90;52.30;;;;;;6167134;23;20131;-80
2021/05/06 16:37:42;;;;;;;1.95;1.55;;;18.90;52.50;;;;;;6188304;23;20170;-83
2021/05/06 16:45:41;;;;;;;3.28;1.63;;;18.90;52.10;;;;;;6171005;23;20214;-83
2021/05/06 16:48:08;;;;;;;3.38;1.42;;;18.90;52.50;;;;;;6143726;23;20181;-83
2021/05/06 16:50:36;;;;;;;1.67;1.52;;;18.90;52.40;;;;;;6171022;23;20150;-84
2021/05/06 16:53:52;;;;;;;;;;;;;;;;;;;;;
2021/05/06 16:56:22;;;;;;;1.60;1.40;;;18.90;52.40;;;;;;6194139;23;20161;-84
2021/05/06 17:06:04;;;;;;;1.65;1.40;;;18.90;52.40;;;;;;6189230;23;20137;-83
2021/05/06 17:08:46;;;;;;;2.47;1.60;;;18.90;53.20;;;;;;6188547;23;20150;-82
2021/05/06 17:11:14;;;;;;;2.25;1.42;;;18.90;53.10;;;;;;6161443;23;20194;-81
2021/05/06 17:13:47;;;;;;;2.67;1.38;;;19.00;52.10;;;;;;6162124;23;20598;-83
2021/05/06 17:16:14;;;;;;;2.83;1.60;;;18.90;52.10;;;;;;6165555;23;20229;-82
2021/05/06 17:18:41;;;;;;;3.42;1.80;;;18.90;53.20;;;;;;6168426;23;20186;-83
2021/05/06 17:21:13;;;;;;;3.53;1.77;;;18.90;52.50;;;;;;6170618;23;20290;-83
2021/05/06 17:23:42;;;;;;;2.13;1.55;;;18.90;53.50;;;;;;6171112;23;20197;-82
2021/05/06 17:26:09;;;;;;;3.42;1.40;;;18.90;52.10;;;;;;6146034;23;20178;-81
2021/05/06 17:28:35;;;;;;;2.25;1.60;;;18.90;53.00;;;;;;6121411;23;20218;-82
2021/05/06 17:31:01;;;;;;;2.47;1.38;;;18.90;53.20;;;;;;6144860;23;20150;-80
2021/05/06 17:33:31;;;;;;;5.30;1.75;;;18.90;53.20;;;;;;6122767;23;20206;-85
2021/05/06 17:35:57;;;;;;;2.67;1.52;;;18.80;53.70;;;;;;6144079;23;20131;-83
2021/05/06 17:38:22;;;;;;;2.80;1.80;;;18.80;53.30;;;;;;6115999;23;20221;-83
2021/05/06 17:40:48;;;;;;;3.25;1.80;;;18.90;53.20;;;;;;6163236;23;20139;-84
2021/05/06 17:43:14;;;;;;;2.42;1.40;;;18.90;53.50;;;;;;6139705;23;20139;-83
2021/05/06 17:45:51;;;;;;;3.42;1.50;;;18.80;52.40;;;;;;6140489;23;20143;-80
2021/05/06 17:48:19;;;;;;;1.85;1.52;;;18.80;53.10;;;;;;6171428;23;20131;-82
2021/05/06 17:50:49;;;;;;;1.70;1.50;;;18.90;52.90;;;;;;6121367;23;20571;-81
2021/05/06 17:53:15;;;;;;;2.30;1.42;;;18.90;52.60;;;;;;6171686;23;20131;-78
2021/05/06 17:55:41;;;;;;;3.00;1.83;;;18.90;51.80;;;;;;6122210;23;20173;-79
2021/05/06 17:58:06;;;;;;;3.42;1.30;;;18.90;52.90;;;;;;6170422;23;20170;-80
2021/05/06 18:00:32;;;;;;;4.07;1.77;;;18.90;52.60;;;;;;6146713;23;20139;-79
2021/05/06 18:02:58;;;;;;;5.47;1.63;;;18.90;53.20;;;;;;6148186;23;20135;-81
2021/05/06 18:05:26;;;;;;;5.22;1.40;;;18.90;53.20;;;;;;6123531;23;20170;-81
2021/05/06 18:07:53;;;;;;;3.35;1.58;;;18.90;53.20;;;;;;6124943;23;20587;-80
2021/05/06 18:10:23;;;;;;;3.95;1.60;;;18.90;53.90;;;;;;6124325;23;20583;-79
2021/05/06 18:12:49;;;;;;;1.95;1.40;;;18.80;52.70;;;;;;6174226;23;20141;-81
2021/05/06 18:15:16;;;;;;;4.15;1.80;;;18.90;53.20;;;;;;6172390;23;20503;-78
2021/05/06 18:17:43;;;;;;;4.13;1.30;;;18.90;53.40;;;;;;6123860;23;20179;-80
2021/05/06 18:20:12;;;;;;;3.97;1.50;;;18.80;53.10;;;;;;6173060;23;20147;-81
2021/05/06 18:22:39;;;;;;;4.18;1.60;;;18.80;52.90;;;;;;6145496;23;20198;-79
2021/05/06 18:25:05;;;;;;;1.85;1.52;;;18.80;53.80;;;;;;6149240;23;20155;-80
2021/05/06 18:27:32;;;;;;;6.45;1.70;;;18.90;52.50;;;;;;6123271;23;20147;-79
2021/05/06 18:30:11;;;;;;;5.80;1.30;;;18.90;53.10;;;;;;6146327;23;20173;-79
2021/05/06 18:32:47;;;;;;;5.38;1.63;;;18.90;52.80;;;;;;6168865;23;20146;-82
2021/05/06 18:35:13;;;;;;;3.55;1.75;;;19.00;53.40;;;;;;6144665;23;20497;-80
2021/05/06 18:37:40;;;;;;;4.03;1.45;;;18.90;52.60;;;;;;6171106;23;20259;-83
2021/05/06 18:40:08;;;;;;;2.40;1.58;;;19.00;53.40;;;;;;6145271;23;20139;-81
2021/05/06 18:42:36;;;;;;;3.45;1.70;;;18.90;52.80;;;;;;6145344;23;20146;-80
2021/05/06 18:45:02;;;;;;;3.22;1.48;;;18.90;53.20;;;;;;6144470;23;20518;-82
2021/05/06 18:47:28;;;;;;;1.77;1.50;;;18.90;51.90;;;;;;6120930;23;20491;-80
2021/05/06 18:49:55;;;;;;;3.05;1.60;;;18.90;53.40;;;;;;6122500;23;20151;-81
2021/05/06 18:52:22;;;;;;;3.47;1.80;;;18.90;53.20;;;;;;6118325;23;20170;-80
2021/05/06 18:54:48;;;;;;;2.58;1.58;;;18.90;52.50;;;;;;6120363;23;20156;-80
2021/05/06 18:57:14;;;;;;;2.70;1.52;;;18.90;53.30;;;;;;6120302;23;20154;-79
2021/05/06 18:59:41;;;;;;;2.90;1.75;;;18.80;53.30;;;;;;6170277;23;20137;-79
2021/05/06 19:02:07;;;;;;;2.67;1.45;;;18.90;52.50;;;;;;6121193;23;20149;-79
2021/05/06 19:04:33;;;;;;;2.88;1.45;;;18.80;53.10;;;;;;6147761;23;20127;-79
2021/05/06 19:06:58;;;;;;;3.33;1.90;;;18.80;53.60;;;;;;6146411;23;20135;-81
2021/05/06 19:09:26;;;;;;;4.47;1.80;;;18.80;53.80;;;;;;6146932;23;20138;-80
2021/05/06 19:11:54;;;;;;;1.98;1.50;;;18.80;54.10;;;;;;6171134;23;20247;-81
2021/05/06 19:14:20;;;;;;;4.30;1.90;;;18.80;53.50;;;;;;6146039;23;20486;-80
2021/05/06 19:16:48;;;;;;;3.67;1.85;;;18.70;54.00;;;;;;6170732;23;20607;-80
2021/05/06 19:19:14;;;;;;;2.33;1.65;;;18.70;53.50;;;;;;6118414;23;20170;-82
2021/05/06 19:21:40;;;;;;;2.08;1.73;;;18.70;53.90;;;;;;6141746;23;20141;-82
2021/05/06 19:24:08;;;;;;;2.78;1.60;;;18.70;53.80;;;;;;6191907;23;20621;-80
2021/05/06 19:26:35;;;;;;;3.28;1.90;;;18.70;53.50;;;;;;6165187;23;20138;-79
2021/05/06 19:29:03;;;;;;;3.13;2.00;;;18.70;54.20;;;;;;6191586;23;20134;-81
2021/05/06 19:31:30;;;;;;;3.45;1.65;;;18.70;54.00;;;;;;6165283;23;20144;-79
2021/05/06 19:33:57;;;;;;;3.25;1.70;;;18.70;54.10;;;;;;6191535;23;20134;-81
2021/05/06 19:36:22;;;;;;;3.50;1.75;;;18.70;53.60;;;;;;6192198;23;20139;-81
2021/05/06 19:38:48;;;;;;;2.78;1.63;;;18.70;53.80;;;;;;6191489;23;20530;-79
2021/05/06 19:41:15;;;;;;;3.58;1.52;;;18.70;54.20;;;;;;6190383;23;20133;-81
2021/05/06 19:43:51;;;;;;;16.17;1.85;;;18.70;53.90;;;;;;6190376;23;20143;-78
2021/05/06 19:49:00;;;;;;;2.95;1.65;;;18.70;53.00;;;;;;6169267;23;20142;-79
2021/05/06 19:51:26;;;;;;;3.15;1.70;;;18.70;53.70;;;;;;6190337;23;20135;-80
2021/05/06 19:53:54;;;;;;;4.40;1.60;;;18.70;54.30;;;;;;6188617;23;20205;-81
2021/05/06 19:56:20;;;;;;;4.82;1.77;;;18.70;53.90;;;;;;6188713;23;20143;-79
2021/05/06 19:58:46;;;;;;;1.77;1.30;;;18.70;54.30;;;;;;6162310;23;20177;-79
2021/05/06 20:01:14;;;;;;;4.20;1.70;;;18.70;53.80;;;;;;6188988;23;20181;-79
2021/05/06 20:03:39;;;;;;;4.80;1.48;;;18.60;54.20;;;;;;6188351;23;20131;-80
2021/05/06 20:06:05;;;;;;;4.38;2.13;;;18.60;54.40;;;;;;6188832;23;20135;-79
2021/05/06 20:08:33;;;;;;;3.00;1.70;;;18.60;54.30;;;;;;6188920;23;20210;-80
2021/05/06 20:11:01;;;;;;;2.38;1.50;;;18.60;54.10;;;;;;6163112;23;20571;-80
2021/05/06 20:13:28;;;;;;;2.67;1.60;;;18.60;54.20;;;;;;6189132;23;20675;-80
2021/05/06 20:15:54;;;;;;;5.32;1.85;;;18.60;54.30;;;;;;6189294;23;20143;-80
2021/05/06 20:18:21;;;;;;;2.83;1.52;;;18.60;54.30;;;;;;6162750;23;20218;-79
2021/05/06 20:23:40;;;;;;;2.83;1.38;;;18.60;54.50;;;;;;6190857;23;20194;-81
2021/05/06 20:26:07;;;;;;;2.50;1.70;;;18.60;54.40;;;;;;6190933;23;20135;-79
2021/05/06 20:28:34;;;;;;;3.15;1.77;;;18.60;54.50;;;;;;6191339;23;20143;-79
2021/05/06 20:31:08;;;;;;;2.70;1.60;;;18.60;54.30;;;;;;6190466;23;20131;-80
2021/05/06 20:33:35;;;;;;;2.47;1.48;;;18.50;54.10;;;;;;6191405;23;20646;-80
2021/05/06 20:36:02;;;;;;;1.83;1.42;;;18.60;54.10;;;;;;6191184;23;20135;-78
2021/05/06 20:38:28;;;;;;;2.50;1.50;;;18.60;54.00;;;;;;6191236;23;20166;-80
2021/05/06 20:40:55;;;;;;;4.32;1.65;;;18.50;54.40;;;;;;6139953;23;20154;-80
2021/05/06 20:43:27;;;;;;;3.00;1.50;;;18.60;54.30;;;;;;6164536;23;20155;-81
2021/05/06 20:45:53;;;;;;;2.40;1.70;;;18.60;53.70;;;;;;6142532;23;20130;-80
2021/05/06 20:48:20;;;;;;;3.03;1.40;;;18.50;54.00;;;;;;6140283;23;20192;-80
2021/05/06 20:50:45;;;;;;;5.20;1.77;;;18.50;54.20;;;;;;6164553;23;20134;-81
2021/05/06 20:53:11;;;;;;;2.03;1.63;;;18.50;54.50;;;;;;6164964;23;20217;-79
2021/05/06 20:55:37;;;;;;;2.08;1.60;;;18.60;53.80;;;;;;6164733;23;20139;-80
2021/05/06 20:58:04;;;;;;;2.65;1.52;;;18.50;54.00;;;;;;6164447;23;20185;-80
2021/05/06 21:00:30;;;;;;;2.10;1.50;;;18.50;53.80;;;;;;6190589;23;20210;-80
2021/05/06 21:02:55;;;;;;;2.22;1.45;;;18.50;54.20;;;;;;6164084;23;20127;-80
2021/05/06 21:05:24;;;;;;;1.75;1.60;;;18.50;53.80;;;;;;6163667;23;20135;-80
2021/05/06 21:07:52;;;;;;;2.42;1.50;;;18.50;53.60;;;;;;6190810;23;20135;-81
2021/05/06 21:10:18;;;;;;;2.80;1.48;;;18.60;53.70;;;;;;6164799;23;20131;-80
2021/05/06 21:12:44;;;;;;;2.85;1.80;;;18.50;53.90;;;;;;6191068;23;20139;-79
2021/05/06 21:15:10;;;;;;;2.08;1.58;;;18.60;53.70;;;;;;6139679;23;20547;-79
2021/05/06 21:17:36;;;;;;;1.95;1.70;;;18.60;54.40;;;;;;6139639;23;20618;-79
2021/05/06 21:20:11;;;;;;;3.20;1.50;;;18.50;54.50;;;;;;6139347;23;20139;-79
2021/05/06 21:22:37;;;;;;;3.38;1.88;;;18.50;54.50;;;;;;6201437;23;20256;-80
2021/05/06 21:25:04;;;;;;;3.58;1.60;;;18.50;54.30;;;;;;6220358;23;20562;-80
2021/05/06 21:27:31;;;;;;;2.67;1.50;;;18.50;54.80;;;;;;6220272;23;20127;-81
2021/05/06 21:29:57;;;;;;;1.58;1.48;;;18.50;54.30;;;;;;6219860;23;20264;-82
2021/05/06 21:32:23;;;;;;;3.33;1.50;;;18.50;54.30;;;;;;6167874;23;20130;-80
2021/05/06 21:34:49;;;;;;;1.85;1.40;;;18.40;54.60;;;;;;6192718;23;20145;-80
2021/05/06 21:37:16;;;;;;;3.13;1.73;;;18.40;54.30;;;;;;6219133;23;20130;-81
2021/05/06 21:39:41;;;;;;;3.00;1.58;;;18.50;54.80;;;;;;6220031;23;20173;-81
2021/05/06 21:42:07;;;;;;;2.20;1.45;;;18.40;54.60;;;;;;6219597;23;20138;-81
2021/05/06 21:44:33;;;;;;;3.25;1.65;;;18.40;54.60;;;;;;6193316;23;20133;-80
2021/05/06 21:47:07;;;;;;;2.53;2.13;;;18.40;54.20;;;;;;6219904;23;20146;-80
2021/05/06 21:49:37;;;;;;;3.75;1.48;;;18.40;54.80;;;;;;6171559;23;20562;-81
2021/05/06 21:52:03;;;;;;;2.08;1.60;;;18.40;54.60;;;;;;6193588;23;20142;-80
2021/05/06 21:54:30;;;;;;;1.73;1.50;;;18.40;54.40;;;;;;6219822;23;20150;-79
2021/05/06 21:56:56;;;;;;;4.30;1.88;;;18.40;54.80;;;;;;6168085;23;20150;-81
2021/05/06 21:59:21;;;;;;;4.72;1.75;;;18.40;54.70;;;;;;6219168;23;20171;-80
2021/05/06 22:01:47;;;;;;;2.22;1.50;;;18.40;54.80;;;;;;6193370;23;20154;-80
2021/05/06 22:04:15;;;;;;;2.97;1.73;;;18.30;54.30;;;;;;6219670;23;20130;-80
2021/05/06 22:06:42;;;;;;;2.10;1.50;;;18.40;54.60;;;;;;6193476;23;20138;-80
2021/05/06 22:09:07;;;;;;;3.08;1.80;;;18.40;54.60;;;;;;6192307;23;20624;-80
2021/05/06 22:11:34;;;;;;;1.80;1.55;;;18.30;54.70;;;;;;6168166;23;20210;-81
2021/05/06 22:14:02;;;;;;;2.38;1.70;;;18.30;54.50;;;;;;6193207;23;20562;-81
2021/05/06 22:16:29;;;;;;;2.17;1.67;;;18.40;54.70;;;;;;6219490;23;20169;-81
2021/05/06 22:18:54;;;;;;;2.88;1.55;;;18.30;54.50;;;;;;6219229;23;20294;-80
2021/05/06 22:21:30;;;;;;;2.00;1.67;;;18.30;54.70;;;;;;6193641;23;20551;-79
2021/05/06 22:23:59;;;;;;;1.77;1.63;;;18.30;54.90;;;;;;6194993;23;20560;-81
2021/05/06 22:26:25;;;;;;;2.83;1.70;;;18.30;54.90;;;;;;6218997;23;20137;-81
2021/05/06 22:28:51;;;;;;;2.25;1.65;;;18.30;54.70;;;;;;6219049;23;20138;-79
2021/05/06 22:31:18;;;;;;;1.92;1.60;;;18.30;54.50;;;;;;6219286;23;20165;-81
2021/05/06 22:33:45;;;;;;;2.67;1.60;;;18.30;54.70;;;;;;6167717;23;20474;-81
2021/05/06 22:36:11;;;;;;;3.60;2.05;;;18.30;54.90;;;;;;6167510;23;20229;-80
2021/05/06 22:38:37;;;;;;;1.73;1.52;;;18.30;54.70;;;;;;6192468;23;20531;-79
2021/05/06 22:41:04;;;;;;;2.72;1.67;;;18.30;54.80;;;;;;6192671;23;20214;-80
2021/05/06 22:43:30;;;;;;;2.35;1.60;;;18.30;54.80;;;;;;6192469;23;20126;-80
2021/05/06 22:45:57;;;;;;;3.50;1.60;;;18.30;54.80;;;;;;6219154;23;20139;-81
2021/05/06 22:48:23;;;;;;;2.28;1.60;;;18.30;55.00;;;;;;6219631;23;20649;-79
2021/05/06 22:50:49;;;;;;;2.97;1.52;;;18.30;54.80;;;;;;6219340;23;20142;-80
2021/05/06 22:53:14;;;;;;;2.50;1.58;;;18.30;54.80;;;;;;6168642;23;20237;-81
2021/05/06 22:55:40;;;;;;;2.15;1.80;;;18.30;54.60;;;;;;6219160;23;20134;-80
2021/05/06 22:58:08;;;;;;;2.40;1.67;;;18.30;54.70;;;;;;6192564;23;20482;-81
2021/05/06 23:00:37;;;;;;;1.65;1.50;;;18.30;54.90;;;;;;6219189;23;20134;-79
2021/05/06 23:03:04;;;;;;;2.00;1.52;;;18.30;54.80;;;;;;6219237;23;20130;-81
2021/05/06 23:05:30;;;;;;;2.08;1.55;;;18.30;55.10;;;;;;6192967;23;20134;-80
2021/05/06 23:07:57;;;;;;;2.00;1.80;;;18.20;54.90;;;;;;6219545;23;20191;-80
2021/05/06 23:10:24;;;;;;;1.77;1.50;;;18.30;55.00;;;;;;6218924;23;20130;-82
2021/05/06 23:12:51;;;;;;;2.28;1.55;;;18.20;54.80;;;;;;6192970;23;20149;-81
2021/05/06 23:15:16;;;;;;;2.80;1.80;;;18.20;54.90;;;;;;6168019;23;20141;-80
2021/05/06 23:17:42;;;;;;;1.58;1.40;;;18.20;55.00;;;;;;6168005;23;20237;-80
2021/05/06 23:20:10;;;;;;;1.63;1.50;;;18.20;55.00;;;;;;6193263;23;20127;-82
2021/05/06 23:22:36;;;;;;;2.17;1.60;;;18.20;55.00;;;;;;6218937;23;20548;-81
2021/05/06 23:25:02;;;;;;;2.90;1.77;;;18.20;54.90;;;;;;6219122;23;20153;-81
2021/05/06 23:27:28;;;;;;;2.97;1.70;;;18.20;55.00;;;;;;6219401;23;20138;-81
2021/05/06 23:29:54;;;;;;;2.35;1.60;;;18.20;55.10;;;;;;6192807;23;20152;-81
2021/05/06 23:32:20;;;;;;;2.50;1.60;;;18.20;55.10;;;;;;6219304;23;20172;-80
2021/05/06 23:34:47;;;;;;;3.42;1.70;;;18.20;55.10;;;;;;6219819;23;20140;-81
2021/05/06 23:37:14;;;;;;;1.88;1.70;;;18.20;55.00;;;;;;6192973;23;20130;-82
2021/05/06 23:39:42;;;;;;;1.80;1.67;;;18.20;55.20;;;;;;6219547;23;20145;-80
2021/05/06 23:42:10;;;;;;;2.67;1.70;;;18.20;55.00;;;;;;6192302;23;20204;-81
2021/05/06 23:44:37;;;;;;;5.93;2.00;;;18.20;55.10;;;;;;6192855;23;20131;-79
2021/05/06 23:47:03;;;;;;;1.75;1.33;;;18.20;55.00;;;;;;6220056;23;20136;-81
2021/05/06 23:49:30;;;;;;;1.90;1.77;;;18.20;55.00;;;;;;6219388;23;20145;-80
2021/05/06 23:52:00;;;;;;;1.90;1.55;;;18.20;55.00;;;;;;6218717;23;20141;-80
2021/05/06 23:54:27;;;;;;;2.78;1.63;;;18.20;55.20;;;;;;6193876;23;20130;-81
2021/05/06 23:56:54;;;;;;;1.73;1.50;;;18.20;55.10;;;;;;6221582;23;20162;-82
2021/05/06 23:59:28;;;;;;;2.15;1.65;;;18.10;55.10;;;;;;6195331;23;20200;-80
